GCXO

Tenerife Norte/Los Rodeos

Airport
ICAO code
GCXO
Summary
ICAO Region
EUR
ICAO Territory
Location

Santa Cruz de Tenerife,

Coordinates
28° 28' 58" N , 16° 20' 29" W
KCC
Airport WX
Fog
Metar
Observation
GCXO 271600Z 14008KT 100V180 CAVOK 20/15 Q1023 NOSIG
Station
Tenerife / Los Rodeos
Date/Time
2022-11-27 16:00:00
Wind direction
140°
Wind speed
08 kts
Lowest cloud amount
clouds and visibility OK
Temperature
20°C
Dew point
15°C
Humidity
72%
QNH
1023 hPa
Weather condition
n/a

Description

Airport serving the island of Tenerife. The main airport on the island is now Tenerife Sur/Reina Sofia.

Climatology

Dry-summer subtropical ”Mediterranean" climate (Köppen climate classification Csa) - characterized by hot, dry summers and mild winters. During the summer, subtropical high pressure cells dominate, making rainfall unlikely except for the occasional thunderstorm. In the winter, periodic storms bring rain (snow at higher elevations).

Because of its elevation, GCXO is prone to fog.

Runways

Designator Length Width Surface Rops
12/30 3400 45 ASP Yes/Yes

Airport map

Aerial View

SKYbrary Partners:

Safety knowledge contributed by: